DEDBC EDXW-EDXW
Flight info
| Callsign | DEDBC |
|---|---|
| Flight time | 0h 4m |
| Altitude | |
| Route | |
| Aircraft | C152/L-VGDW/C |
Departure
| Time | 2026-05-01 12:38 |
|---|---|
| Airport | Westerland Sylt Airport (EDXW) |
Arrival
| Time | 2026-05-01 12:42 |
|---|---|
| Airport | Westerland Sylt Airport (EDXW) |
| Time | Latitude | Longitude | Altitude | Speed | Heading |
|---|---|---|---|---|---|
| 2026-05-01 12:33 | 54.91109 | 8.32739 | 34 ft | 0 kts | 232° |
| 2026-05-01 12:33 | 54.91108 | 8.32733 | 34 ft | 3 kts | 268° |
| 2026-05-01 12:34 | 54.91134 | 8.32725 | 33 ft | 4 kts | 333° |
| 2026-05-01 12:34 | 54.91176 | 8.32673 | 31 ft | 6 kts | 338° |
| 2026-05-01 12:34 | 54.91194 | 8.32694 | 32 ft | 1 kts | 68° |
| 2026-05-01 12:34 | 54.91196 | 8.32702 | 31 ft | 0 kts | 67° |
| 2026-05-01 12:35 | 54.91199 | 8.32712 | 31 ft | 7 kts | 67° |
| 2026-05-01 12:35 | 54.91236 | 8.32894 | 30 ft | 21 kts | 68° |
| 2026-05-01 12:35 | 54.91273 | 8.33083 | 29 ft | 13 kts | 69° |
| 2026-05-01 12:35 | 54.91310 | 8.33218 | 27 ft | 14 kts | 26° |
| 2026-05-01 12:36 | 54.91410 | 8.33240 | 26 ft | 15 kts | 339° |
| 2026-05-01 12:36 | 54.91501 | 8.33177 | 28 ft | 13 kts | 359° |
| 2026-05-01 12:36 | 54.91590 | 8.33178 | 31 ft | 15 kts | 0° |
| 2026-05-01 12:36 | 54.91726 | 8.33174 | 34 ft | 22 kts | 3° |
| 2026-05-01 12:37 | 54.91833 | 8.33200 | 36 ft | 0 kts | 16° |
| 2026-05-01 12:37 | 54.91872 | 8.33235 | 36 ft | 16 kts | 37° |
| 2026-05-01 12:37 | 54.91867 | 8.33380 | 36 ft | 21 kts | 147° |
| 2026-05-01 12:38 | 54.91620 | 8.33674 | 53 ft | 59 kts | 150° |
| 2026-05-01 12:38 | 54.91299 | 8.34084 | 275 ft | 56 kts | 147° |
| 2026-05-01 12:38 | 54.91039 | 8.34568 | 491 ft | 57 kts | 140° |
| 2026-05-01 12:38 | 54.90856 | 8.35182 | 667 ft | 64 kts | 123° |
| 2026-05-01 12:39 | 54.90706 | 8.36013 | 714 ft | 83 kts | 98° |
| 2026-05-01 12:39 | 54.91022 | 8.36923 | 759 ft | 98 kts | 39° |
| 2026-05-01 12:39 | 54.91585 | 8.37464 | 883 ft | 93 kts | 25° |
| 2026-05-01 12:39 | 54.92231 | 8.37507 | 906 ft | 94 kts | 342° |
| 2026-05-01 12:40 | 54.92872 | 8.37123 | 922 ft | 101 kts | 338° |
| 2026-05-01 12:40 | 54.93514 | 8.36620 | 868 ft | 101 kts | 326° |
| 2026-05-01 12:40 | 54.93989 | 8.35766 | 755 ft | 99 kts | 295° |
| 2026-05-01 12:40 | 54.94185 | 8.34784 | 681 ft | 71 kts | 261° |
| 2026-05-01 12:41 | 54.93995 | 8.34061 | 577 ft | 68 kts | 227° |
| 2026-05-01 12:41 | 54.93686 | 8.33521 | 476 ft | 57 kts | 216° |
| 2026-05-01 12:41 | 54.93384 | 8.33135 | 452 ft | 53 kts | 205° |
| 2026-05-01 12:41 | 54.93036 | 8.32891 | 451 ft | 59 kts | 195° |
| 2026-05-01 12:42 | 54.92632 | 8.32807 | 408 ft | 56 kts | 176° |
| 2026-05-01 12:42 | 54.92275 | 8.32932 | 259 ft | 51 kts | 169° |
| 2026-05-01 12:42 | 54.91979 | 8.33243 | 125 ft | 50 kts | 151° |
| 2026-05-01 12:42 | 54.91723 | 8.33553 | 44 ft | 36 kts | 153° |
| 2026-05-01 12:43 | 54.91581 | 8.33718 | 39 ft | 15 kts | 152° |
| 2026-05-01 12:43 | 54.91556 | 8.33745 | 38 ft | 9 kts | 143° |
| 2026-05-01 12:43 | 54.91462 | 8.33853 | 36 ft | 19 kts | 146° |
| 2026-05-01 12:43 | 54.91354 | 8.33981 | 35 ft | 18 kts | 168° |
| 2026-05-01 12:44 | 54.91269 | 8.33873 | 32 ft | 16 kts | 225° |
| 2026-05-01 12:44 | 54.91211 | 8.33721 | 31 ft | 16 kts | 242° |
| 2026-05-01 12:44 | 54.91086 | 8.33327 | 31 ft | 19 kts | 240° |
| 2026-05-01 12:45 | 54.91034 | 8.32932 | 35 ft | 16 kts | 316° |
| 2026-05-01 12:45 | 54.91087 | 8.32771 | 35 ft | 15 kts | 288° |
| 2026-05-01 12:45 | 54.91112 | 8.32720 | 34 ft | 0 kts | 24° |